Time;durP1;ratioP1;P1;durP2;ratioP2;P2;SDS_P1;SDS_P2;PMS_P1;PMS_P2;Temp;Humidity;BMP_temperature;BMP_pressure;BME280_temperature;BME280_humidity;BME280_pressure;Samples;Min_cycle;Max_cycle;Signal;HPM_P1;HPM_P2
2022/11/18 00:06:53;;;;;;;5.97;1.90;;;;;;;8.61;100.00;98515.75;20908732;28;20053;-74
2022/11/18 00:16:54;;;;;;;3.42;1.00;;;;;;;8.67;100.00;98516.38;20914480;28;20044;-77
2022/11/18 00:26:56;;;;;;;7.75;2.45;;;;;;;8.70;100.00;98512.78;20990582;28;20060;-71
2022/11/18 00:36:57;;;;;;;7.40;1.20;;;;;;;8.68;100.00;98519.84;20989378;28;20052;-74
2022/11/18 00:46:59;;;;;;;3.33;1.23;;;;;;;8.59;100.00;98513.19;20990016;28;20049;-74
2022/11/18 00:57:00;;;;;;;3.50;1.38;;;;;;;8.64;100.00;98520.84;20987546;28;20049;-72
2022/11/18 01:07:02;;;;;;;4.93;1.30;;;;;;;8.71;100.00;98532.75;20986288;28;20049;-75
2022/11/18 01:17:03;;;;;;;4.30;1.40;;;;;;;8.91;100.00;98539.81;20980410;28;20087;-76
2022/11/18 01:27:04;;;;;;;2.75;1.30;;;;;;;8.72;100.00;98550.13;20903905;28;20094;-76
2022/11/18 01:37:06;;;;;;;4.28;1.20;;;;;;;8.77;100.00;98558.63;20903162;28;20049;-77
2022/11/18 01:47:07;;;;;;;5.85;1.75;;;;;;;8.81;100.00;98568.00;20903822;28;20045;-78
2022/11/18 01:57:09;;;;;;;4.30;1.65;;;;;;;8.91;100.00;98577.22;20902061;28;20080;-75
2022/11/18 02:07:10;;;;;;;8.10;1.50;;;;;;;9.04;100.00;98568.91;20900265;28;20055;-74
2022/11/18 02:17:11;;;;;;;6.20;1.67;;;;;;;9.10;100.00;98587.81;20909360;28;20097;-74
2022/11/18 02:27:13;;;;;;;2.55;1.13;;;;;;;9.13;100.00;98602.47;20983944;28;20143;-74
2022/11/18 02:37:14;;;;;;;5.53;1.80;;;;;;;9.12;100.00;98611.22;20983718;28;20052;-74
2022/11/18 02:47:16;;;;;;;3.72;1.40;;;;;;;9.11;100.00;98609.53;20983567;28;20048;-74
2022/11/18 02:57:17;;;;;;;2.20;1.00;;;;;;;9.15;100.00;98617.19;20983726;28;20052;-74
2022/11/18 03:07:19;;;;;;;3.33;0.88;;;;;;;9.11;100.00;98639.09;20982465;28;20048;-74
2022/11/18 03:17:20;;;;;;;4.40;1.13;;;;;;;9.03;100.00;98640.28;20978010;28;20559;-75
2022/11/18 03:27:24;;;;;;;2.78;1.00;;;;;;;8.91;100.00;98655.53;20915657;28;20071;-74
2022/11/18 03:37:39;;;;;;;2.40;0.95;;;;;;;8.84;100.00;98680.13;20745564;28;20417;-75
2022/11/18 03:47:40;;;;;;;4.82;1.42;;;;;;;8.87;100.00;98685.25;20749136;28;20092;-75
2022/11/18 03:57:41;;;;;;;5.22;1.25;;;;;;;8.93;100.00;98707.66;20748187;28;20052;-76
2022/11/18 04:07:43;;;;;;;6.95;1.63;;;;;;;8.90;100.00;98720.81;20745783;28;20046;-76
2022/11/18 04:17:44;;;;;;;4.32;1.50;;;;;;;8.89;100.00;98719.97;20758854;28;20050;-76
2022/11/18 04:27:46;;;;;;;5.20;1.20;;;;;;;8.84;100.00;98726.25;20826519;28;20072;-74
2022/11/18 04:37:47;;;;;;;4.82;1.40;;;;;;;8.77;100.00;98746.50;20871404;28;20053;-76
2022/11/18 04:47:48;;;;;;;2.67;1.00;;;;;;;8.70;100.00;98745.00;20908057;28;20056;-76
2022/11/18 04:57:50;;;;;;;6.28;1.48;;;;;;;8.55;100.00;98766.41;20907180;28;20052;-74
2022/11/18 05:07:51;;;;;;;1.70;0.55;;;;;;;8.36;100.00;98772.22;20904466;28;20049;-75
2022/11/18 05:17:53;;;;;;;2.85;0.93;;;;;;;8.27;100.00;98782.06;20892958;28;20461;-78
2022/11/18 05:27:54;;;;;;;2.58;0.50;;;;;;;8.06;100.00;98799.25;20822318;28;20058;-75
2022/11/18 05:37:55;;;;;;;4.78;0.60;;;;;;;8.10;100.00;98806.94;20818800;28;20057;-75
2022/11/18 05:48:00;;;;;;;3.70;0.50;;;;;;;8.08;100.00;98815.69;20821611;28;20049;-74
2022/11/18 05:58:01;;;;;;;3.42;0.70;;;;;;;8.15;100.00;98830.25;20819264;28;20056;-75
2022/11/18 06:08:03;;;;;;;4.35;1.40;;;;;;;8.10;100.00;98847.78;20822163;28;20260;-76
2022/11/18 06:18:04;;;;;;;2.78;0.90;;;;;;;8.13;100.00;98858.94;20886650;28;20490;-79
2022/11/18 06:28:07;;;;;;;2.65;0.60;;;;;;;8.09;100.00;98869.50;20818493;28;20060;-76
2022/11/18 06:48:14;;;;;;;2.92;0.57;;;;;;;7.98;100.00;98896.75;20538035;28;20417;-74
2022/11/18 06:58:15;;;;;;;3.30;0.60;;;;;;;7.96;100.00;98901.19;20595804;28;20423;-74
2022/11/18 07:08:17;;;;;;;4.63;1.83;;;;;;;7.93;100.00;98929.91;20590690;28;20051;-73
2022/11/18 07:18:18;;;;;;;4.03;1.38;;;;;;;7.91;100.00;98942.16;20588856;28;20463;-72
2022/11/18 07:28:20;;;;;;;3.88;1.33;;;;;;;7.94;100.00;98957.69;20586595;28;20513;-73
2022/11/18 07:38:21;;;;;;;3.25;1.17;;;;;;;8.04;100.00;98973.06;20586214;28;20586;-74
2022/11/18 07:48:23;;;;;;;4.20;1.88;;;;;;;8.05;100.00;98985.19;20585670;28;20054;-73
2022/11/18 07:58:24;;;;;;;4.38;1.40;;;;;;;8.14;100.00;99004.03;20585584;28;20411;-76
2022/11/18 08:08:26;;;;;;;4.03;1.88;;;;;;;8.13;100.00;99019.72;20582019;28;20043;-73
2022/11/18 08:18:27;;;;;;;6.60;2.72;;;;;;;8.18;100.00;99033.50;20580928;28;20058;-73
2022/11/18 08:28:28;;;;;;;6.10;2.03;;;;;;;8.33;100.00;99030.44;20578710;28;20058;-73
2022/11/18 08:38:30;;;;;;;3.50;0.95;;;;;;;8.43;100.00;99039.78;20526853;28;20055;-73
2022/11/18 08:48:31;;;;;;;3.60;1.77;;;;;;;8.57;100.00;99038.50;20539283;28;20415;-73
2022/11/18 08:58:33;;;;;;;5.93;2.30;;;;;;;8.70;100.00;99042.47;20575560;28;20043;-78
2022/11/18 09:08:34;;;;;;;4.15;1.83;;;;;;;8.70;100.00;99052.91;20580839;28;20562;-77
2022/11/18 09:18:35;;;;;;;5.10;2.30;;;;;;;8.86;100.00;99061.13;20576974;28;20510;-78
2022/11/18 09:28:37;;;;;;;7.10;2.75;;;;;;;8.97;100.00;99062.50;20574914;28;20313;-76
2022/11/18 09:38:38;;;;;;;5.68;2.75;;;;;;;9.11;100.00;99076.91;20506256;28;20051;-76
2022/11/18 09:59:00;;;;;;;8.75;4.50;;;;;;;9.20;100.00;99100.97;20496662;28;20055;-76
2022/11/18 10:09:01;;;;;;;13.02;4.45;;;;;;;9.45;100.00;99114.13;20495715;28;20098;-76
2022/11/18 10:19:03;;;;;;;9.98;3.85;;;;;;;9.69;100.00;99124.69;20517768;28;20097;-76
2022/11/18 10:29:08;;;;;;;7.07;2.47;;;;;;;9.75;100.00;99124.47;20573813;28;20051;-76
2022/11/18 10:39:10;;;;;;;6.15;1.92;;;;;;;9.89;100.00;99137.94;20571553;28;20557;-76
2022/11/18 10:49:11;;;;;;;3.75;1.33;;;;;;;9.97;100.00;99133.31;20572004;28;20511;-76
2022/11/18 10:59:13;;;;;;;4.70;1.63;;;;;;;10.11;100.00;99134.59;20572225;28;20050;-76
2022/11/18 11:09:14;;;;;;;4.28;1.13;;;;;;;10.23;100.00;99131.56;20573504;28;20077;-76
2022/11/18 11:19:16;;;;;;;5.72;1.42;;;;;;;10.28;100.00;99140.16;20573727;28;20057;-76
2022/11/18 11:29:17;;;;;;;4.70;1.23;;;;;;;10.47;100.00;99135.97;20572797;28;20082;-75
2022/11/18 11:39:19;;;;;;;4.07;2.03;;;;;;;10.64;100.00;99150.25;20577533;28;20055;-79
2022/11/18 11:49:21;;;;;;;5.38;1.30;;;;;;;10.81;100.00;99160.94;20585028;28;20741;-74
2022/11/18 11:59:22;;;;;;;4.15;1.20;;;;;;;10.78;100.00;99158.44;20585575;28;20530;-73
2022/11/18 12:09:23;;;;;;;5.28;1.77;;;;;;;10.50;100.00;99169.91;20584568;28;20064;-74
2022/11/18 12:19:25;;;;;;;4.70;1.48;;;;;;;10.53;100.00;99169.78;20584515;28;20058;-73
2022/11/18 12:29:26;;;;;;;4.90;1.60;;;;;;;10.95;100.00;99171.75;20582602;28;20050;-72
2022/11/18 12:39:28;;;;;;;4.25;1.40;;;;;;;10.95;100.00;99169.16;20581787;28;20098;-73
2022/11/18 12:49:29;;;;;;;6.40;1.33;;;;;;;11.20;100.00;99168.22;20581382;28;20488;-70
2022/11/18 12:59:31;;;;;;;6.85;1.73;;;;;;;11.32;100.00;99170.38;20582413;28;20055;-71
2022/11/18 13:09:32;;;;;;;5.60;1.05;;;;;;;11.29;100.00;99179.22;20579312;28;20054;-72
2022/11/18 13:19:34;;;;;;;6.22;1.38;;;;;;;11.16;100.00;99187.59;20579029;28;20058;-72
2022/11/18 13:29:35;;;;;;;4.65;1.10;;;;;;;11.17;100.00;99194.56;20579639;28;20046;-72
2022/11/18 13:39:37;;;;;;;7.22;1.25;;;;;;;10.73;100.00;99190.03;20578899;28;20051;-72
2022/11/18 13:49:38;;;;;;;4.65;0.98;;;;;;;10.58;100.00;99179.22;20577760;28;20043;-71
2022/11/18 13:59:40;;;;;;;6.57;1.45;;;;;;;10.50;100.00;99196.06;20576656;28;20102;-71
2022/11/18 14:09:41;;;;;;;5.03;1.05;;;;;;;10.45;100.00;99197.16;20575006;28;20058;-72
2022/11/18 14:19:42;;;;;;;7.75;1.73;;;;;;;10.20;100.00;99197.91;20575261;28;20058;-71
2022/11/18 14:29:44;;;;;;;6.13;1.30;;;;;;;10.24;100.00;99204.78;20599267;28;20418;-72
2022/11/18 14:39:45;;;;;;;8.70;1.38;;;;;;;10.05;100.00;99223.72;20537150;28;20539;-72
2022/11/18 14:49:46;;;;;;;5.03;1.80;;;;;;;9.87;100.00;99228.66;20494400;28;20055;-71
2022/11/18 14:59:48;;;;;;;7.03;2.10;;;;;;;9.71;100.00;99235.25;20493905;28;20055;-72
2022/11/18 15:09:49;;;;;;;5.78;1.67;;;;;;;9.58;100.00;99246.97;20572423;28;20078;-71
2022/11/18 15:19:51;;;;;;;10.27;1.83;;;;;;;9.61;100.00;99250.38;20587886;28;20081;-72
2022/11/18 15:29:52;;;;;;;7.22;2.80;;;;;;;9.65;100.00;99253.75;20581851;28;20062;-71
2022/11/18 15:39:59;;;;;;;10.80;5.10;;;;;;;9.64;100.00;99280.78;20577321;28;20046;-71
2022/11/18 15:50:00;;;;;;;11.23;4.15;;;;;;;9.54;100.00;99281.97;20585540;28;20050;-71
2022/11/18 16:00:01;;;;;;;9.23;3.20;;;;;;;9.41;100.00;99287.53;20585137;28;20058;-71
2022/11/18 16:20:23;;;;;;;8.07;3.20;;;;;;;9.32;100.00;99287.78;20583754;28;20515;-71
2022/11/18 16:40:45;;;;;;;8.15;3.50;;;;;;;9.30;100.00;99305.28;20562873;28;20055;-71
2022/11/18 16:50:46;;;;;;;8.98;2.90;;;;;;;9.24;100.00;99311.50;20502813;28;20133;-71
2022/11/18 17:00:47;;;;;;;7.13;3.13;;;;;;;9.19;100.00;99321.22;20500660;28;20480;-70
2022/11/18 17:11:09;;;;;;;7.28;2.28;;;;;;;9.02;100.00;99327.81;20593579;28;20451;-71
2022/11/18 17:21:11;;;;;;;7.22;2.60;;;;;;;8.95;100.00;99348.00;20552190;28;20054;-72
2022/11/18 17:31:12;;;;;;;9.63;2.50;;;;;;;8.90;100.00;99347.25;20569461;28;20050;-71
2022/11/18 17:42:12;;;;;;;10.75;4.43;;;;;;;8.79;100.00;99360.59;20566821;28;20101;-72
2022/11/18 17:51:35;;;;;;;14.70;5.97;;;;;;;8.81;100.00;99356.19;20567488;28;20046;-72
2022/11/18 18:01:36;;;;;;;9.27;4.25;;;;;;;8.76;100.00;99373.69;20564629;28;20051;-71
2022/11/18 18:11:37;;;;;;;10.93;5.60;;;;;;;8.71;100.00;99384.25;20550221;28;20058;-71
2022/11/18 18:21:39;;;;;;;14.27;6.95;;;;;;;8.65;100.00;99388.78;20528904;28;20101;-71
2022/11/18 18:31:40;;;;;;;15.60;6.85;;;;;;;8.60;100.00;99388.88;20564731;28;20054;-71
2022/11/18 18:41:42;;;;;;;15.35;6.05;;;;;;;8.60;100.00;99393.25;20564051;28;20055;-71
2022/11/18 18:51:43;;;;;;;7.50;2.90;;;;;;;8.54;100.00;99393.41;20576978;28;20062;-72
2022/11/18 19:01:45;;;;;;;7.22;3.30;;;;;;;8.38;100.00;99385.91;20746107;23;20061;-72
2022/11/18 19:22:06;;;;;;;10.52;3.78;;;;;;;8.32;100.00;99390.38;20612088;28;20055;-71
2022/11/18 19:32:08;;;;;;;9.18;3.20;;;;;;;8.26;100.00;99393.16;20653672;28;20051;-71
2022/11/18 19:42:09;;;;;;;9.55;2.78;;;;;;;8.13;100.00;99408.19;20657301;28;20065;-71
2022/11/18 19:52:11;;;;;;;8.63;3.17;;;;;;;8.16;100.00;99416.81;20658143;28;20499;-71
2022/11/18 20:02:12;;;;;;;8.90;3.78;;;;;;;8.12;100.00;99430.81;20655132;28;20484;-71
2022/11/18 20:12:14;;;;;;;9.07;3.17;;;;;;;8.09;100.00;99437.81;20635158;28;20051;-71
2022/11/18 20:22:15;;;;;;;5.40;2.88;;;;;;;8.08;100.00;99443.94;20613712;28;20050;-71
2022/11/18 20:32:17;;;;;;;6.78;2.65;;;;;;;8.10;100.00;99448.25;20650730;28;20704;-72
2022/11/18 20:52:38;;;;;;;10.07;2.97;;;;;;;8.12;100.00;99446.44;20653010;28;20042;-71
2022/11/18 21:02:40;;;;;;;7.40;2.70;;;;;;;8.17;100.00;99454.16;20650289;28;20053;-70
2022/11/18 21:14:15;;;;;;;7.32;2.83;;;;;;;8.16;100.00;99458.53;20626294;28;20054;-71
2022/11/18 21:23:02;;;;;;;10.02;3.08;;;;;;;8.14;100.00;99459.44;20624448;28;20058;-71
2022/11/18 21:33:04;;;;;;;9.02;2.78;;;;;;;8.11;100.00;99467.34;20650673;28;20046;-72
2022/11/18 21:43:05;;;;;;;5.82;3.20;;;;;;;8.17;100.00;99469.81;20650701;28;20053;-71
2022/11/18 21:53:06;;;;;;;9.52;3.92;;;;;;;8.22;100.00;99467.97;20649053;28;20046;-71
2022/11/18 22:03:08;;;;;;;11.52;4.05;;;;;;;8.30;100.00;99473.88;20640574;28;20125;-71
2022/11/18 22:13:09;;;;;;;9.15;3.78;;;;;;;8.27;100.00;99476.56;20617790;28;20053;-71
2022/11/18 22:23:11;;;;;;;11.95;3.85;;;;;;;8.24;100.00;99466.19;20622759;28;20109;-71
2022/11/18 22:33:12;;;;;;;8.77;4.20;;;;;;;8.19;100.00;99473.22;20646883;28;20050;-71
2022/11/18 22:43:14;;;;;;;12.80;4.72;;;;;;;8.14;100.00;99490.72;20647540;28;20161;-71
2022/11/18 22:53:15;;;;;;;13.55;5.65;;;;;;;8.15;100.00;99495.94;20646832;28;20057;-70
2022/11/18 23:03:16;;;;;;;12.43;6.53;;;;;;;8.14;100.00;99490.72;20648859;28;20053;-71
2022/11/18 23:23:38;;;;;;;12.15;6.32;;;;;;;8.01;100.00;99500.56;20653466;28;20047;-71
2022/11/18 23:33:40;;;;;;;12.68;5.57;;;;;;;7.81;100.00;99503.56;20656720;28;20042;-71
2022/11/18 23:43:41;;;;;;;14.55;5.07;;;;;;;7.89;100.00;99501.63;20667222;28;20479;-71
2022/11/18 23:53:42;;;;;;;10.68;5.13;;;;;;;7.96;100.00;99503.25;20666969;28;20053;-71
